sensor_id;sensor_type;location;lat;lon;timestamp;temperature;humidity
34873;DHT22;21084;51.098;14.506;2024-01-15T00:01:42;0.40;99.90
34873;DHT22;21084;51.098;14.506;2024-01-15T00:04:11;0.40;99.90
34873;DHT22;21084;51.098;14.506;2024-01-15T00:06:40;0.40;99.90
34873;DHT22;21084;51.098;14.506;2024-01-15T00:09:08;0.40;99.90
34873;DHT22;21084;51.098;14.506;2024-01-15T00:11:37;0.40;99.90
34873;DHT22;21084;51.098;14.506;2024-01-15T00:14:05;0.40;99.90
34873;DHT22;21084;51.098;14.506;2024-01-15T00:16:36;0.50;99.90
34873;DHT22;21084;51.098;14.506;2024-01-15T00:19:04;0.60;99.90
34873;DHT22;21084;51.098;14.506;2024-01-15T00:21:33;0.50;99.90
34873;DHT22;21084;51.098;14.506;2024-01-15T00:24:02;0.60;99.90
34873;DHT22;21084;51.098;14.506;2024-01-15T00:26:31;0.60;99.90
34873;DHT22;21084;51.098;14.506;2024-01-15T00:28:59;0.60;99.90
34873;DHT22;21084;51.098;14.506;2024-01-15T00:31:28;0.60;99.90
34873;DHT22;21084;51.098;14.506;2024-01-15T00:33:58;0.60;99.90
34873;DHT22;21084;51.098;14.506;2024-01-15T00:36:27;0.60;99.90
34873;DHT22;21084;51.098;14.506;2024-01-15T00:38:56;0.60;99.90
34873;DHT22;21084;51.098;14.506;2024-01-15T00:41:24;0.60;99.90
34873;DHT22;21084;51.098;14.506;2024-01-15T00:43:54;0.60;99.90
34873;DHT22;21084;51.098;14.506;2024-01-15T00:46:23;0.70;99.90
34873;DHT22;21084;51.098;14.506;2024-01-15T00:48:52;0.70;99.90
34873;DHT22;21084;51.098;14.506;2024-01-15T00:51:22;0.70;99.90
34873;DHT22;21084;51.098;14.506;2024-01-15T00:53:50;0.70;99.90
34873;DHT22;21084;51.098;14.506;2024-01-15T00:56:19;0.70;99.90
34873;DHT22;21084;51.098;14.506;2024-01-15T00:58:47;0.70;99.90
34873;DHT22;21084;51.098;14.506;2024-01-15T01:01:16;0.70;99.90
34873;DHT22;21084;51.098;14.506;2024-01-15T01:03:44;0.70;99.90
34873;DHT22;21084;51.098;14.506;2024-01-15T01:06:13;0.70;99.90
34873;DHT22;21084;51.098;14.506;2024-01-15T01:08:43;0.70;99.90
34873;DHT22;21084;51.098;14.506;2024-01-15T01:11:35;0.70;99.90
34873;DHT22;21084;51.098;14.506;2024-01-15T01:14:04;0.70;99.90
34873;DHT22;21084;51.098;14.506;2024-01-15T01:16:32;0.70;99.90
34873;DHT22;21084;51.098;14.506;2024-01-15T01:19:06;0.70;99.90
34873;DHT22;21084;51.098;14.506;2024-01-15T01:21:36;0.70;99.90
34873;DHT22;21084;51.098;14.506;2024-01-15T01:24:06;0.70;99.90
34873;DHT22;21084;51.098;14.506;2024-01-15T01:26:34;0.70;99.90
34873;DHT22;21084;51.098;14.506;2024-01-15T01:29:03;0.70;99.90
34873;DHT22;21084;51.098;14.506;2024-01-15T01:31:32;0.70;99.90
34873;DHT22;21084;51.098;14.506;2024-01-15T01:34:00;0.70;99.90
34873;DHT22;21084;51.098;14.506;2024-01-15T01:36:31;0.70;99.90
34873;DHT22;21084;51.098;14.506;2024-01-15T01:39:00;0.60;99.90
34873;DHT22;21084;51.098;14.506;2024-01-15T01:41:29;0.60;99.90
34873;DHT22;21084;51.098;14.506;2024-01-15T01:43:58;0.60;99.90
34873;DHT22;21084;51.098;14.506;2024-01-15T01:46:27;0.60;99.90
34873;DHT22;21084;51.098;14.506;2024-01-15T01:48:57;0.60;99.90
34873;DHT22;21084;51.098;14.506;2024-01-15T01:51:28;0.60;99.90
34873;DHT22;21084;51.098;14.506;2024-01-15T01:53:57;0.60;99.90
34873;DHT22;21084;51.098;14.506;2024-01-15T01:56:26;0.60;99.90
34873;DHT22;21084;51.098;14.506;2024-01-15T01:58:56;0.60;99.90
34873;DHT22;21084;51.098;14.506;2024-01-15T02:01:25;0.50;99.90
34873;DHT22;21084;51.098;14.506;2024-01-15T02:03:53;0.50;99.90
34873;DHT22;21084;51.098;14.506;2024-01-15T02:06:24;0.60;99.90
34873;DHT22;21084;51.098;14.506;2024-01-15T02:08:53;0.60;99.90
34873;DHT22;21084;51.098;14.506;2024-01-15T02:11:22;0.60;99.90
34873;DHT22;21084;51.098;14.506;2024-01-15T02:13:50;0.60;99.90
34873;DHT22;21084;51.098;14.506;2024-01-15T02:16:21;0.60;99.90
34873;DHT22;21084;51.098;14.506;2024-01-15T02:18:49;0.60;99.90
34873;DHT22;21084;51.098;14.506;2024-01-15T02:21:18;0.60;99.90
34873;DHT22;21084;51.098;14.506;2024-01-15T02:23:48;0.60;99.90
34873;DHT22;21084;51.098;14.506;2024-01-15T02:26:16;0.60;99.90
34873;DHT22;21084;51.098;14.506;2024-01-15T02:28:45;0.60;99.90
34873;DHT22;21084;51.098;14.506;2024-01-15T02:31:14;0.60;99.90
34873;DHT22;21084;51.098;14.506;2024-01-15T02:33:43;0.60;99.90
34873;DHT22;21084;51.098;14.506;2024-01-15T02:36:13;0.60;99.90
34873;DHT22;21084;51.098;14.506;2024-01-15T02:38:42;0.50;99.90
34873;DHT22;21084;51.098;14.506;2024-01-15T02:41:12;0.50;99.90
34873;DHT22;21084;51.098;14.506;2024-01-15T02:43:41;0.60;99.90
34873;DHT22;21084;51.098;14.506;2024-01-15T02:46:09;0.60;99.90
34873;DHT22;21084;51.098;14.506;2024-01-15T02:48:38;0.60;99.90
34873;DHT22;21084;51.098;14.506;2024-01-15T02:51:07;0.60;99.90
34873;DHT22;21084;51.098;14.506;2024-01-15T02:53:36;0.60;99.90
34873;DHT22;21084;51.098;14.506;2024-01-15T02:56:06;0.50;99.90
34873;DHT22;21084;51.098;14.506;2024-01-15T02:58:36;0.50;99.90
34873;DHT22;21084;51.098;14.506;2024-01-15T03:01:04;0.50;99.90
34873;DHT22;21084;51.098;14.506;2024-01-15T03:03:33;0.50;99.90
34873;DHT22;21084;51.098;14.506;2024-01-15T03:06:02;0.50;99.90
34873;DHT22;21084;51.098;14.506;2024-01-15T03:08:31;0.50;99.90
34873;DHT22;21084;51.098;14.506;2024-01-15T03:10:59;0.50;99.90
34873;DHT22;21084;51.098;14.506;2024-01-15T03:13:28;0.40;99.90
34873;DHT22;21084;51.098;14.506;2024-01-15T03:15:58;0.40;99.90
34873;DHT22;21084;51.098;14.506;2024-01-15T03:18:27;0.20;99.90
34873;DHT22;21084;51.098;14.506;2024-01-15T03:20:56;0.00;99.90
34873;DHT22;21084;51.098;14.506;2024-01-15T03:23:24;-0.20;99.90
34873;DHT22;21084;51.098;14.506;2024-01-15T03:25:53;-0.20;99.90
34873;DHT22;21084;51.098;14.506;2024-01-15T03:28:21;-0.20;99.90
34873;DHT22;21084;51.098;14.506;2024-01-15T03:30:50;-0.20;99.90
34873;DHT22;21084;51.098;14.506;2024-01-15T03:33:20;-0.10;99.90
34873;DHT22;21084;51.098;14.506;2024-01-15T03:35:49;0.00;99.90
34873;DHT22;21084;51.098;14.506;2024-01-15T03:38:18;0.00;99.90
34873;DHT22;21084;51.098;14.506;2024-01-15T03:40:46;0.00;99.90
34873;DHT22;21084;51.098;14.506;2024-01-15T03:43:15;0.10;99.90
34873;DHT22;21084;51.098;14.506;2024-01-15T03:45:44;0.10;99.90
34873;DHT22;21084;51.098;14.506;2024-01-15T03:48:13;0.10;99.90
34873;DHT22;21084;51.098;14.506;2024-01-15T03:50:43;0.10;99.90
34873;DHT22;21084;51.098;14.506;2024-01-15T03:53:11;0.10;99.90
34873;DHT22;21084;51.098;14.506;2024-01-15T03:55:40;0.20;99.90
34873;DHT22;21084;51.098;14.506;2024-01-15T03:58:08;0.20;99.90
34873;DHT22;21084;51.098;14.506;2024-01-15T04:00:37;0.20;99.90
34873;DHT22;21084;51.098;14.506;2024-01-15T04:03:06;0.20;99.90
34873;DHT22;21084;51.098;14.506;2024-01-15T04:05:34;0.30;99.90
34873;DHT22;21084;51.098;14.506;2024-01-15T04:08:05;0.30;99.90
34873;DHT22;21084;51.098;14.506;2024-01-15T04:10:33;0.30;99.90
34873;DHT22;21084;51.098;14.506;2024-01-15T04:13:02;0.30;99.90
34873;DHT22;21084;51.098;14.506;2024-01-15T04:15:30;0.30;99.90
34873;DHT22;21084;51.098;14.506;2024-01-15T04:18:00;0.20;99.90
34873;DHT22;21084;51.098;14.506;2024-01-15T04:20:29;0.20;99.90
34873;DHT22;21084;51.098;14.506;2024-01-15T04:22:57;0.20;99.90
34873;DHT22;21084;51.098;14.506;2024-01-15T04:25:27;0.20;99.90
34873;DHT22;21084;51.098;14.506;2024-01-15T04:27:56;0.20;99.90
34873;DHT22;21084;51.098;14.506;2024-01-15T04:30:25;0.10;99.90
34873;DHT22;21084;51.098;14.506;2024-01-15T04:32:53;0.00;99.90
34873;DHT22;21084;51.098;14.506;2024-01-15T04:35:22;-0.10;99.90
34873;DHT22;21084;51.098;14.506;2024-01-15T04:37:50;-0.10;99.90
34873;DHT22;21084;51.098;14.506;2024-01-15T04:40:19;0.00;99.90
34873;DHT22;21084;51.098;14.506;2024-01-15T04:42:49;0.00;99.90
34873;DHT22;21084;51.098;14.506;2024-01-15T04:45:17;0.00;99.90
34873;DHT22;21084;51.098;14.506;2024-01-15T04:47:47;0.00;99.90
34873;DHT22;21084;51.098;14.506;2024-01-15T04:50:15;0.10;99.90
34873;DHT22;21084;51.098;14.506;2024-01-15T04:52:44;0.00;99.90
34873;DHT22;21084;51.098;14.506;2024-01-15T04:55:13;0.00;99.90
34873;DHT22;21084;51.098;14.506;2024-01-15T04:57:41;0.00;99.90
34873;DHT22;21084;51.098;14.506;2024-01-15T05:00:13;0.00;99.90
34873;DHT22;21084;51.098;14.506;2024-01-15T05:02:42;0.00;99.90
34873;DHT22;21084;51.098;14.506;2024-01-15T05:05:11;0.00;99.90
34873;DHT22;21084;51.098;14.506;2024-01-15T05:07:39;0.00;99.90
34873;DHT22;21084;51.098;14.506;2024-01-15T05:10:08;0.10;99.90
34873;DHT22;21084;51.098;14.506;2024-01-15T05:12:36;0.10;99.90
34873;DHT22;21084;51.098;14.506;2024-01-15T05:15:05;0.10;99.90
34873;DHT22;21084;51.098;14.506;2024-01-15T05:17:35;0.10;99.90
34873;DHT22;21084;51.098;14.506;2024-01-15T05:20:05;0.10;99.90
34873;DHT22;21084;51.098;14.506;2024-01-15T05:22:34;0.10;99.90
34873;DHT22;21084;51.098;14.506;2024-01-15T05:25:03;0.00;99.90
34873;DHT22;21084;51.098;14.506;2024-01-15T05:27:32;0.00;99.90
34873;DHT22;21084;51.098;14.506;2024-01-15T05:30:01;0.00;99.90
34873;DHT22;21084;51.098;14.506;2024-01-15T05:32:30;0.10;99.90
34873;DHT22;21084;51.098;14.506;2024-01-15T05:35:00;0.00;99.90
34873;DHT22;21084;51.098;14.506;2024-01-15T05:37:28;0.00;99.90
34873;DHT22;21084;51.098;14.506;2024-01-15T05:39:57;0.00;99.90
34873;DHT22;21084;51.098;14.506;2024-01-15T05:42:25;0.00;99.90
34873;DHT22;21084;51.098;14.506;2024-01-15T05:44:57;0.00;99.90
34873;DHT22;21084;51.098;14.506;2024-01-15T05:47:26;0.00;99.90
34873;DHT22;21084;51.098;14.506;2024-01-15T05:49:55;0.00;99.90
34873;DHT22;21084;51.098;14.506;2024-01-15T05:52:26;0.00;99.90
34873;DHT22;21084;51.098;14.506;2024-01-15T05:54:54;0.00;99.90
34873;DHT22;21084;51.098;14.506;2024-01-15T05:57:23;0.00;99.90
34873;DHT22;21084;51.098;14.506;2024-01-15T05:59:52;0.00;99.90
34873;DHT22;21084;51.098;14.506;2024-01-15T06:02:21;0.00;99.90
34873;DHT22;21084;51.098;14.506;2024-01-15T06:04:49;0.00;99.90
34873;DHT22;21084;51.098;14.506;2024-01-15T06:07:18;0.00;99.90
34873;DHT22;21084;51.098;14.506;2024-01-15T06:09:48;-0.10;99.90
34873;DHT22;21084;51.098;14.506;2024-01-15T06:12:16;-0.10;99.90
34873;DHT22;21084;51.098;14.506;2024-01-15T06:14:45;-0.10;99.90
34873;DHT22;21084;51.098;14.506;2024-01-15T06:17:13;-0.10;99.90
34873;DHT22;21084;51.098;14.506;2024-01-15T06:19:42;-0.10;99.90
34873;DHT22;21084;51.098;14.506;2024-01-15T06:22:10;-0.10;99.90
34873;DHT22;21084;51.098;14.506;2024-01-15T06:24:39;-0.10;99.90
34873;DHT22;21084;51.098;14.506;2024-01-15T06:27:09;-0.10;99.90
34873;DHT22;21084;51.098;14.506;2024-01-15T06:29:38;-0.10;99.90
34873;DHT22;21084;51.098;14.506;2024-01-15T06:32:06;-0.20;99.90
34873;DHT22;21084;51.098;14.506;2024-01-15T06:34:35;-0.20;99.90
34873;DHT22;21084;51.098;14.506;2024-01-15T06:37:03;-0.20;99.90
34873;DHT22;21084;51.098;14.506;2024-01-15T06:39:32;-0.20;99.90
34873;DHT22;21084;51.098;14.506;2024-01-15T06:42:00;-0.20;99.90
34873;DHT22;21084;51.098;14.506;2024-01-15T06:44:30;-0.20;99.90
34873;DHT22;21084;51.098;14.506;2024-01-15T06:46:59;-0.30;99.90
34873;DHT22;21084;51.098;14.506;2024-01-15T06:49:53;-0.30;99.90
34873;DHT22;21084;51.098;14.506;2024-01-15T06:52:22;-0.30;99.90
34873;DHT22;21084;51.098;14.506;2024-01-15T06:55:16;-0.30;99.90
34873;DHT22;21084;51.098;14.506;2024-01-15T06:57:44;-0.30;99.90
34873;DHT22;21084;51.098;14.506;2024-01-15T07:00:16;-0.30;99.90
34873;DHT22;21084;51.098;14.506;2024-01-15T07:02:47;-0.30;99.90
34873;DHT22;21084;51.098;14.506;2024-01-15T07:05:15;-0.30;99.90
34873;DHT22;21084;51.098;14.506;2024-01-15T07:07:44;-0.30;99.90
34873;DHT22;21084;51.098;14.506;2024-01-15T07:10:12;-0.40;99.90
34873;DHT22;21084;51.098;14.506;2024-01-15T07:12:42;-0.40;99.90
34873;DHT22;21084;51.098;14.506;2024-01-15T07:15:10;-0.30;99.90
34873;DHT22;21084;51.098;14.506;2024-01-15T07:17:40;-0.30;99.90
34873;DHT22;21084;51.098;14.506;2024-01-15T07:20:10;-0.20;99.90
34873;DHT22;21084;51.098;14.506;2024-01-15T07:22:39;-0.20;99.90
34873;DHT22;21084;51.098;14.506;2024-01-15T07:25:08;-0.20;99.90
34873;DHT22;21084;51.098;14.506;2024-01-15T07:27:36;-0.20;99.90
34873;DHT22;21084;51.098;14.506;2024-01-15T07:30:06;-0.20;99.90
34873;DHT22;21084;51.098;14.506;2024-01-15T07:32:36;-0.20;99.90
34873;DHT22;21084;51.098;14.506;2024-01-15T07:35:07;-0.20;99.90
34873;DHT22;21084;51.098;14.506;2024-01-15T07:37:35;-0.20;99.90
34873;DHT22;21084;51.098;14.506;2024-01-15T07:40:05;-0.20;99.90
34873;DHT22;21084;51.098;14.506;2024-01-15T07:42:35;-0.20;99.90
34873;DHT22;21084;51.098;14.506;2024-01-15T07:45:05;-0.20;99.90
34873;DHT22;21084;51.098;14.506;2024-01-15T07:47:34;-0.20;99.90
34873;DHT22;21084;51.098;14.506;2024-01-15T07:50:03;-0.20;99.90
34873;DHT22;21084;51.098;14.506;2024-01-15T07:52:34;-0.20;99.90
34873;DHT22;21084;51.098;14.506;2024-01-15T07:55:03;-0.20;99.90
34873;DHT22;21084;51.098;14.506;2024-01-15T07:57:32;-0.30;99.90
34873;DHT22;21084;51.098;14.506;2024-01-15T08:00:02;-0.30;99.90
34873;DHT22;21084;51.098;14.506;2024-01-15T08:02:32;-0.30;99.90
34873;DHT22;21084;51.098;14.506;2024-01-15T08:05:04;-0.30;99.90
34873;DHT22;21084;51.098;14.506;2024-01-15T08:07:34;-0.30;99.90
34873;DHT22;21084;51.098;14.506;2024-01-15T08:10:03;-0.40;99.90
34873;DHT22;21084;51.098;14.506;2024-01-15T08:12:32;-0.30;99.90
34873;DHT22;21084;51.098;14.506;2024-01-15T08:15:01;-0.40;99.90
34873;DHT22;21084;51.098;14.506;2024-01-15T08:17:29;-0.30;99.90
34873;DHT22;21084;51.098;14.506;2024-01-15T08:19:59;-0.30;99.90
34873;DHT22;21084;51.098;14.506;2024-01-15T08:22:29;-0.30;99.90
34873;DHT22;21084;51.098;14.506;2024-01-15T08:25:00;-0.30;99.90
34873;DHT22;21084;51.098;14.506;2024-01-15T08:27:29;-0.30;99.90
34873;DHT22;21084;51.098;14.506;2024-01-15T08:29:57;-0.30;99.90
34873;DHT22;21084;51.098;14.506;2024-01-15T08:32:26;-0.30;99.90
34873;DHT22;21084;51.098;14.506;2024-01-15T08:34:55;-0.20;99.90
34873;DHT22;21084;51.098;14.506;2024-01-15T08:37:23;-0.20;99.90
34873;DHT22;21084;51.098;14.506;2024-01-15T08:39:52;-0.20;99.90
34873;DHT22;21084;51.098;14.506;2024-01-15T08:42:22;-0.20;99.90
34873;DHT22;21084;51.098;14.506;2024-01-15T08:44:50;-0.10;99.90
34873;DHT22;21084;51.098;14.506;2024-01-15T08:47:19;-0.10;99.90
34873;DHT22;21084;51.098;14.506;2024-01-15T08:49:47;-0.10;99.90
34873;DHT22;21084;51.098;14.506;2024-01-15T08:52:16;-0.10;99.90
34873;DHT22;21084;51.098;14.506;2024-01-15T08:54:44;0.00;99.90
34873;DHT22;21084;51.098;14.506;2024-01-15T08:57:13;0.00;99.90
34873;DHT22;21084;51.098;14.506;2024-01-15T08:59:43;0.00;99.90
34873;DHT22;21084;51.098;14.506;2024-01-15T09:02:12;0.00;99.90
34873;DHT22;21084;51.098;14.506;2024-01-15T09:04:41;0.00;99.90
34873;DHT22;21084;51.098;14.506;2024-01-15T09:07:10;0.00;99.90
34873;DHT22;21084;51.098;14.506;2024-01-15T09:09:38;0.00;99.90
34873;DHT22;21084;51.098;14.506;2024-01-15T09:12:09;0.00;99.90
34873;DHT22;21084;51.098;14.506;2024-01-15T09:14:38;0.00;99.90
34873;DHT22;21084;51.098;14.506;2024-01-15T09:17:08;0.00;99.90
34873;DHT22;21084;51.098;14.506;2024-01-15T09:19:36;0.10;99.90
34873;DHT22;21084;51.098;14.506;2024-01-15T09:22:06;0.10;99.90
34873;DHT22;21084;51.098;14.506;2024-01-15T09:24:35;0.10;99.90
34873;DHT22;21084;51.098;14.506;2024-01-15T09:27:04;0.10;99.90
34873;DHT22;21084;51.098;14.506;2024-01-15T09:29:32;0.20;99.90
34873;DHT22;21084;51.098;14.506;2024-01-15T09:32:01;0.20;99.90
34873;DHT22;21084;51.098;14.506;2024-01-15T09:34:33;0.20;99.90
34873;DHT22;21084;51.098;14.506;2024-01-15T09:37:02;0.20;99.90
34873;DHT22;21084;51.098;14.506;2024-01-15T09:39:31;0.30;99.90
34873;DHT22;21084;51.098;14.506;2024-01-15T09:42:01;0.30;99.90
34873;DHT22;21084;51.098;14.506;2024-01-15T09:44:31;0.30;99.90
34873;DHT22;21084;51.098;14.506;2024-01-15T09:46:59;0.40;99.90
34873;DHT22;21084;51.098;14.506;2024-01-15T09:49:28;0.40;99.90
34873;DHT22;21084;51.098;14.506;2024-01-15T09:51:58;0.40;99.90
34873;DHT22;21084;51.098;14.506;2024-01-15T09:54:38;0.40;99.90
34873;DHT22;21084;51.098;14.506;2024-01-15T09:57:07;0.40;99.90
34873;DHT22;21084;51.098;14.506;2024-01-15T09:59:36;0.40;99.90
34873;DHT22;21084;51.098;14.506;2024-01-15T10:02:07;0.40;99.90
34873;DHT22;21084;51.098;14.506;2024-01-15T10:04:35;0.40;99.90
34873;DHT22;21084;51.098;14.506;2024-01-15T10:07:07;0.50;99.90
34873;DHT22;21084;51.098;14.506;2024-01-15T10:09:36;0.50;99.90
34873;DHT22;21084;51.098;14.506;2024-01-15T10:12:06;0.50;99.90
34873;DHT22;21084;51.098;14.506;2024-01-15T10:14:34;0.60;99.90
34873;DHT22;21084;51.098;14.506;2024-01-15T10:17:12;0.60;99.90
34873;DHT22;21084;51.098;14.506;2024-01-15T10:19:41;0.60;99.90
34873;DHT22;21084;51.098;14.506;2024-01-15T10:22:17;0.60;99.90
34873;DHT22;21084;51.098;14.506;2024-01-15T10:24:46;0.70;99.90
34873;DHT22;21084;51.098;14.506;2024-01-15T10:27:15;0.70;99.90
34873;DHT22;21084;51.098;14.506;2024-01-15T10:29:44;0.70;99.90
34873;DHT22;21084;51.098;14.506;2024-01-15T10:32:12;0.70;99.90
34873;DHT22;21084;51.098;14.506;2024-01-15T10:34:41;0.70;99.90
34873;DHT22;21084;51.098;14.506;2024-01-15T10:37:11;0.70;99.90
34873;DHT22;21084;51.098;14.506;2024-01-15T10:39:40;0.70;99.90
34873;DHT22;21084;51.098;14.506;2024-01-15T10:42:10;0.70;99.90
34873;DHT22;21084;51.098;14.506;2024-01-15T10:44:38;0.80;99.90
34873;DHT22;21084;51.098;14.506;2024-01-15T10:47:07;0.70;99.90
34873;DHT22;21084;51.098;14.506;2024-01-15T10:49:35;0.70;99.90
34873;DHT22;21084;51.098;14.506;2024-01-15T10:52:04;0.70;99.90
34873;DHT22;21084;51.098;14.506;2024-01-15T10:54:34;0.70;99.90
34873;DHT22;21084;51.098;14.506;2024-01-15T10:57:06;0.70;99.90
34873;DHT22;21084;51.098;14.506;2024-01-15T10:59:34;0.70;99.90
34873;DHT22;21084;51.098;14.506;2024-01-15T11:02:04;0.70;99.90
34873;DHT22;21084;51.098;14.506;2024-01-15T11:04:33;0.80;99.90
34873;DHT22;21084;51.098;14.506;2024-01-15T11:07:03;0.90;99.90
34873;DHT22;21084;51.098;14.506;2024-01-15T11:09:32;1.00;99.90
34873;DHT22;21084;51.098;14.506;2024-01-15T11:12:09;1.00;99.90
34873;DHT22;21084;51.098;14.506;2024-01-15T11:14:39;1.00;99.90
34873;DHT22;21084;51.098;14.506;2024-01-15T11:17:11;1.00;99.90
34873;DHT22;21084;51.098;14.506;2024-01-15T11:19:43;1.00;99.90
34873;DHT22;21084;51.098;14.506;2024-01-15T11:25:34;1.00;99.90
34873;DHT22;21084;51.098;14.506;2024-01-15T11:28:05;1.10;99.90
34873;DHT22;21084;51.098;14.506;2024-01-15T11:30:34;1.00;99.90
34873;DHT22;21084;51.098;14.506;2024-01-15T11:33:04;1.00;99.90
34873;DHT22;21084;51.098;14.506;2024-01-15T11:35:55;1.00;99.90
34873;DHT22;21084;51.098;14.506;2024-01-15T11:38:27;1.00;99.90
34873;DHT22;21084;51.098;14.506;2024-01-15T11:40:58;1.00;99.90
34873;DHT22;21084;51.098;14.506;2024-01-15T11:43:30;1.00;99.90
34873;DHT22;21084;51.098;14.506;2024-01-15T11:46:02;1.00;99.90
34873;DHT22;21084;51.098;14.506;2024-01-15T11:48:42;1.00;99.90
34873;DHT22;21084;51.098;14.506;2024-01-15T11:51:12;1.00;99.90
34873;DHT22;21084;51.098;14.506;2024-01-15T11:53:48;1.10;99.90
34873;DHT22;21084;51.098;14.506;2024-01-15T11:56:17;1.10;99.90
34873;DHT22;21084;51.098;14.506;2024-01-15T11:58:47;1.20;99.90
34873;DHT22;21084;51.098;14.506;2024-01-15T12:01:18;1.20;99.90
34873;DHT22;21084;51.098;14.506;2024-01-15T12:03:48;1.30;99.90
34873;DHT22;21084;51.098;14.506;2024-01-15T12:06:17;1.30;99.90
34873;DHT22;21084;51.098;14.506;2024-01-15T12:08:45;1.20;99.90
34873;DHT22;21084;51.098;14.506;2024-01-15T12:11:16;1.40;99.90
34873;DHT22;21084;51.098;14.506;2024-01-15T12:13:48;1.50;99.90
34873;DHT22;21084;51.098;14.506;2024-01-15T12:16:19;1.60;99.90
34873;DHT22;21084;51.098;14.506;2024-01-15T12:18:48;1.50;99.90
34873;DHT22;21084;51.098;14.506;2024-01-15T12:21:17;1.40;99.90
34873;DHT22;21084;51.098;14.506;2024-01-15T12:23:46;1.20;99.90
34873;DHT22;21084;51.098;14.506;2024-01-15T12:26:15;1.20;99.90
34873;DHT22;21084;51.098;14.506;2024-01-15T12:28:44;1.20;99.90
34873;DHT22;21084;51.098;14.506;2024-01-15T12:31:14;1.20;99.90
34873;DHT22;21084;51.098;14.506;2024-01-15T12:33:43;1.20;99.90
34873;DHT22;21084;51.098;14.506;2024-01-15T12:36:13;1.20;99.90
34873;DHT22;21084;51.098;14.506;2024-01-15T12:38:41;1.20;99.90
34873;DHT22;21084;51.098;14.506;2024-01-15T12:41:10;1.20;99.90
34873;DHT22;21084;51.098;14.506;2024-01-15T12:43:38;1.20;99.90
34873;DHT22;21084;51.098;14.506;2024-01-15T12:46:07;1.20;99.90
34873;DHT22;21084;51.098;14.506;2024-01-15T12:48:37;1.20;99.90
34873;DHT22;21084;51.098;14.506;2024-01-15T12:51:08;1.10;99.90
34873;DHT22;21084;51.098;14.506;2024-01-15T12:53:36;1.10;99.90
34873;DHT22;21084;51.098;14.506;2024-01-15T12:56:05;1.10;99.90
34873;DHT22;21084;51.098;14.506;2024-01-15T12:58:34;1.10;99.90
34873;DHT22;21084;51.098;14.506;2024-01-15T13:01:02;1.20;99.90
34873;DHT22;21084;51.098;14.506;2024-01-15T13:03:31;1.20;99.90
34873;DHT22;21084;51.098;14.506;2024-01-15T13:06:02;1.20;99.90
34873;DHT22;21084;51.098;14.506;2024-01-15T13:08:30;1.10;99.90
34873;DHT22;21084;51.098;14.506;2024-01-15T13:10:59;1.10;99.90
34873;DHT22;21084;51.098;14.506;2024-01-15T13:13:27;1.00;99.90
34873;DHT22;21084;51.098;14.506;2024-01-15T13:15:56;0.80;99.90
34873;DHT22;21084;51.098;14.506;2024-01-15T13:18:24;0.80;99.90
34873;DHT22;21084;51.098;14.506;2024-01-15T13:20:53;0.80;99.90
34873;DHT22;21084;51.098;14.506;2024-01-15T13:23:23;0.70;99.90
34873;DHT22;21084;51.098;14.506;2024-01-15T13:25:52;0.70;99.90
34873;DHT22;21084;51.098;14.506;2024-01-15T13:28:20;0.70;99.90
34873;DHT22;21084;51.098;14.506;2024-01-15T13:30:51;0.50;99.90
34873;DHT22;21084;51.098;14.506;2024-01-15T13:33:19;0.50;99.90
34873;DHT22;21084;51.098;14.506;2024-01-15T13:35:48;0.50;99.90
34873;DHT22;21084;51.098;14.506;2024-01-15T13:38:17;0.40;99.90
34873;DHT22;21084;51.098;14.506;2024-01-15T13:40:48;0.50;99.90
34873;DHT22;21084;51.098;14.506;2024-01-15T13:43:18;0.50;99.90
34873;DHT22;21084;51.098;14.506;2024-01-15T13:45:47;0.60;99.90
34873;DHT22;21084;51.098;14.506;2024-01-15T13:48:16;0.50;99.90
34873;DHT22;21084;51.098;14.506;2024-01-15T13:50:45;0.50;99.90
34873;DHT22;21084;51.098;14.506;2024-01-15T13:53:14;0.40;99.90
34873;DHT22;21084;51.098;14.506;2024-01-15T13:55:43;0.40;99.90
34873;DHT22;21084;51.098;14.506;2024-01-15T13:58:13;0.30;99.90
34873;DHT22;21084;51.098;14.506;2024-01-15T14:00:42;0.30;99.90
34873;DHT22;21084;51.098;14.506;2024-01-15T14:03:10;0.30;99.90
34873;DHT22;21084;51.098;14.506;2024-01-15T14:05:39;0.30;99.90
34873;DHT22;21084;51.098;14.506;2024-01-15T14:08:07;0.20;99.90
34873;DHT22;21084;51.098;14.506;2024-01-15T14:10:36;0.20;99.90
34873;DHT22;21084;51.098;14.506;2024-01-15T14:13:05;0.20;99.90
34873;DHT22;21084;51.098;14.506;2024-01-15T14:15:35;0.10;99.90
34873;DHT22;21084;51.098;14.506;2024-01-15T14:18:04;0.00;99.90
34873;DHT22;21084;51.098;14.506;2024-01-15T14:20:33;0.00;99.90
34873;DHT22;21084;51.098;14.506;2024-01-15T14:23:01;-0.10;99.90
34873;DHT22;21084;51.098;14.506;2024-01-15T14:25:30;-0.10;99.90
34873;DHT22;21084;51.098;14.506;2024-01-15T14:27:59;-0.10;99.90
34873;DHT22;21084;51.098;14.506;2024-01-15T14:30:28;-0.10;99.90
34873;DHT22;21084;51.098;14.506;2024-01-15T14:32:58;-0.10;99.90
34873;DHT22;21084;51.098;14.506;2024-01-15T14:35:26;-0.10;99.90
34873;DHT22;21084;51.098;14.506;2024-01-15T14:37:55;-0.10;99.90
34873;DHT22;21084;51.098;14.506;2024-01-15T14:40:25;-0.10;99.90
34873;DHT22;21084;51.098;14.506;2024-01-15T14:42:54;0.00;99.90
34873;DHT22;21084;51.098;14.506;2024-01-15T14:45:23;-0.10;99.90
34873;DHT22;21084;51.098;14.506;2024-01-15T14:47:51;0.00;99.90
34873;DHT22;21084;51.098;14.506;2024-01-15T14:50:21;0.00;99.90
34873;DHT22;21084;51.098;14.506;2024-01-15T14:52:50;0.00;99.90
34873;DHT22;21084;51.098;14.506;2024-01-15T14:55:19;0.00;99.90
34873;DHT22;21084;51.098;14.506;2024-01-15T14:57:47;0.00;99.90
34873;DHT22;21084;51.098;14.506;2024-01-15T15:00:16;0.00;99.90
34873;DHT22;21084;51.098;14.506;2024-01-15T15:02:45;-0.10;99.90
34873;DHT22;21084;51.098;14.506;2024-01-15T15:05:14;-0.10;99.90
34873;DHT22;21084;51.098;14.506;2024-01-15T15:07:45;-0.20;99.90
34873;DHT22;21084;51.098;14.506;2024-01-15T15:10:14;-0.20;99.90
34873;DHT22;21084;51.098;14.506;2024-01-15T15:12:43;-0.30;99.90
34873;DHT22;21084;51.098;14.506;2024-01-15T15:15:12;-0.30;99.90
34873;DHT22;21084;51.098;14.506;2024-01-15T15:17:46;-0.30;99.90
34873;DHT22;21084;51.098;14.506;2024-01-15T15:20:15;-0.30;99.90
34873;DHT22;21084;51.098;14.506;2024-01-15T15:22:45;-0.30;99.90
34873;DHT22;21084;51.098;14.506;2024-01-15T15:25:14;-0.40;99.90
34873;DHT22;21084;51.098;14.506;2024-01-15T15:27:42;-0.40;99.90
34873;DHT22;21084;51.098;14.506;2024-01-15T15:30:11;-0.40;99.90
34873;DHT22;21084;51.098;14.506;2024-01-15T15:32:40;-0.40;99.90
34873;DHT22;21084;51.098;14.506;2024-01-15T15:35:09;-0.40;99.90
34873;DHT22;21084;51.098;14.506;2024-01-15T15:37:38;-0.40;99.90
34873;DHT22;21084;51.098;14.506;2024-01-15T15:40:09;-0.30;99.90
34873;DHT22;21084;51.098;14.506;2024-01-15T15:42:38;-0.30;99.90
34873;DHT22;21084;51.098;14.506;2024-01-15T15:45:08;-0.30;99.90